Time;durP1;ratioP1;P1;durP2;ratioP2;P2;SDS_P1;SDS_P2;PMS_P1;PMS_P2;Temp;Humidity;BMP_temperature;BMP_pressure;BME280_temperature;BME280_humidity;BME280_pressure;Samples;Min_cycle;Max_cycle;Signal;HPM_P1;HPM_P2
2022/12/30 00:00:24;;;;;;;14.27;3.17;;;;;;;5.21;97.83;100967.06;5051850;28;20023;-51
2022/12/30 00:02:50;;;;;;;13.00;2.97;;;;;;;5.18;97.87;100970.72;5049620;28;20359;-49
2022/12/30 00:05:16;;;;;;;8.82;3.33;;;;;;;5.18;98.12;100969.88;5051605;28;20516;-49
2022/12/30 00:07:41;;;;;;;12.18;2.90;;;;;;;5.16;98.01;100971.72;5051537;28;20437;-49
2022/12/30 00:10:07;;;;;;;11.55;2.83;;;;;;;5.14;98.13;100977.06;5051430;28;20155;-49
2022/12/30 00:34:56;;;;;;;14.57;3.33;;;;;;;4.99;98.83;100997.13;5048826;28;20040;-50
2022/12/30 00:37:21;;;;;;;16.65;3.53;;;;;;;4.98;99.22;100994.59;5051115;28;20116;-49
2022/12/30 00:39:47;;;;;;;13.52;3.33;;;;;;;4.96;98.86;100997.31;5051027;28;20100;-51
2022/12/30 00:44:56;;;;;;;14.43;3.47;;;;;;;4.93;99.21;100996.59;5051397;28;20509;-49
2022/12/30 00:47:21;;;;;;;15.43;3.72;;;;;;;4.93;99.25;100993.94;5052135;28;20029;-49
2022/12/30 00:57:58;;;;;;;14.70;3.50;;;;;;;4.85;99.51;100993.50;5050313;28;20048;-52
2022/12/30 01:00:24;;;;;;;13.85;4.53;;;;;;;4.85;99.81;100997.00;5051848;28;20029;-49
2022/12/30 01:02:49;;;;;;;17.92;3.78;;;;;;;4.81;100.00;100998.94;5050325;28;20029;-50
2022/12/30 01:05:14;;;;;;;15.32;3.58;;;;;;;4.82;100.00;100999.78;5051236;28;20067;-49
2022/12/30 01:07:39;;;;;;;17.08;4.03;;;;;;;4.80;99.92;101005.09;5050560;28;20048;-51
2022/12/30 01:10:05;;;;;;;17.17;3.47;;;;;;;4.80;100.00;101006.91;5051519;28;20530;-52
2022/12/30 01:12:30;;;;;;;12.00;2.92;;;;;;;4.79;99.97;101002.56;5051082;28;20033;-51
2022/12/30 01:14:56;;;;;;;21.33;4.13;;;;;;;4.77;100.00;101010.53;5049925;28;20020;-53
2022/12/30 01:17:24;;;;;;;20.55;3.72;;;;;;;4.76;100.00;101015.84;5048764;28;20376;-50
2022/12/30 01:19:50;;;;;;;18.30;3.63;;;;;;;4.76;100.00;101011.47;5050982;28;20037;-53
2022/12/30 01:22:15;;;;;;;17.92;3.60;;;;;;;4.75;100.00;101008.91;5049486;28;20033;-53
2022/12/30 01:24:41;;;;;;;16.52;3.75;;;;;;;4.74;100.00;101009.81;5051410;28;20494;-50
2022/12/30 01:27:07;;;;;;;12.95;3.90;;;;;;;4.71;100.00;101002.91;5052803;28;20037;-51
2022/12/30 01:29:36;;;;;;;20.13;3.90;;;;;;;4.72;100.00;101012.53;5054509;28;20025;-51
2022/12/30 01:32:02;;;;;;;;;;;;;;;4.76;100.00;101011.47;5046834;28;20106;-50
2022/12/30 01:34:27;;;;;;;15.90;4.03;;;;;;;4.71;100.00;101017.88;5047355;28;20338;-51
2022/12/30 01:36:52;;;;;;;15.85;3.55;;;;;;;4.69;100.00;101017.09;5054614;28;20078;-51
2022/12/30 01:39:19;;;;;;;17.13;4.35;;;;;;;4.67;100.00;101013.69;5053835;28;20383;-53
2022/12/30 01:41:45;;;;;;;14.77;3.70;;;;;;;4.66;100.00;101027.75;5054457;28;20037;-49
2022/12/30 01:44:48;;;;;;;17.77;3.85;;;;;;;4.66;100.00;101028.59;5054694;28;20033;-51
2022/12/30 01:47:21;;;;;;;15.98;3.33;;;;;;;4.64;100.00;101030.47;5046219;28;20059;-52
2022/12/30 01:49:50;;;;;;;14.63;3.85;;;;;;;4.64;100.00;101041.00;5054093;28;20025;-50
2022/12/30 01:52:19;;;;;;;16.55;3.67;;;;;;;4.61;100.00;101043.78;5053458;28;20139;-49
2022/12/30 01:54:44;;;;;;;;;;;;;;;4.66;100.00;101052.28;5054427;28;20103;-50
2022/12/30 01:57:10;;;;;;;18.05;3.92;;;;;;;4.62;100.00;101045.47;5053341;28;20051;-52
2022/12/30 01:59:37;;;;;;;22.25;3.90;;;;;;;4.60;100.00;101053.44;5054075;28;20103;-49
2022/12/30 02:02:03;;;;;;;19.85;3.72;;;;;;;4.59;100.00;101053.53;5053855;28;20033;-50
2022/12/30 02:04:29;;;;;;;13.50;3.35;;;;;;;4.58;100.00;101055.31;5054144;28;20028;-49
2022/12/30 02:07:20;;;;;;;14.85;3.10;;;;;;;4.57;100.00;101044.84;5043211;28;20387;-52
2022/12/30 02:09:47;;;;;;;18.65;3.58;;;;;;;4.55;100.00;101044.94;5054332;28;20033;-49
2022/12/30 02:12:12;;;;;;;15.60;3.40;;;;;;;4.56;100.00;101040.50;5053809;28;20427;-49
2022/12/30 02:14:40;;;;;;;14.00;3.40;;;;;;;4.56;100.00;101041.38;5053107;28;20052;-49
2022/12/30 02:17:34;;;;;;;16.52;3.55;;;;;;;4.59;100.00;101040.38;5053206;28;20068;-50
2022/12/30 02:20:14;;;;;;;17.35;3.47;;;;;;;4.61;100.00;101023.59;5047466;28;20115;-49
2022/12/30 02:22:58;;;;;;;14.82;3.70;;;;;;;4.63;100.00;101028.78;5053501;28;20064;-49
2022/12/30 02:25:48;;;;;;;15.48;3.50;;;;;;;4.64;100.00;101023.41;5044514;28;20086;-49
2022/12/30 02:28:26;;;;;;;18.35;3.15;;;;;;;4.66;100.00;101020.72;5051967;28;20449;-52
2022/12/30 02:31:16;;;;;;;15.57;3.58;;;;;;;4.66;100.00;101011.97;5053853;28;20028;-49
2022/12/30 02:34:04;;;;;;;19.75;4.18;;;;;;;4.65;100.00;101005.88;5045433;28;20391;-49
2022/12/30 02:36:45;;;;;;;19.13;3.92;;;;;;;4.64;100.00;100996.28;5050427;28;20126;-51
2022/12/30 02:39:28;;;;;;;13.38;3.03;;;;;;;4.61;100.00;100999.03;5051022;28;20498;-50
2022/12/30 02:45:01;;;;;;;13.85;2.95;;;;;;;4.54;100.00;100998.50;5051910;28;20092;-51
2022/12/30 02:47:34;;;;;;;16.23;3.30;;;;;;;4.52;100.00;100991.63;5053009;28;20068;-52
2022/12/30 02:52:50;;;;;;;13.70;3.43;;;;;;;4.45;100.00;100984.03;5053074;28;20063;-50
2022/12/30 02:55:16;;;;;;;18.55;3.63;;;;;;;4.43;100.00;100982.41;5051873;28;20507;-49
2022/12/30 02:57:41;;;;;;;21.10;4.22;;;;;;;4.38;100.00;100969.47;5051917;28;20083;-49
2022/12/30 03:06:36;;;;;;;15.40;3.15;;;;;;;4.26;100.00;100968.28;5048863;28;20262;-53
2022/12/30 03:09:38;;;;;;;23.40;4.28;;;;;;;4.23;100.00;100965.81;5038244;28;20100;-49
2022/12/30 03:12:27;;;;;;;19.48;3.67;;;;;;;4.18;100.00;100969.56;5036808;28;20021;-49
2022/12/30 03:15:07;;;;;;;15.95;3.65;;;;;;;4.15;100.00;100981.09;5047126;28;20086;-53
2022/12/30 03:17:37;;;;;;;15.55;3.55;;;;;;;4.11;100.00;100989.19;5037930;28;20164;-50
2022/12/30 03:20:07;;;;;;;14.65;3.33;;;;;;;4.08;100.00;100974.44;5052920;28;20040;-50
2022/12/30 03:28:08;;;;;;;16.40;3.28;;;;;;;3.98;100.00;100966.13;5050514;28;20071;-52
2022/12/30 03:30:42;;;;;;;12.98;3.33;;;;;;;3.95;100.00;100971.53;5052203;28;20562;-52
2022/12/30 03:33:08;;;;;;;18.45;3.88;;;;;;;3.94;100.00;100969.81;5051919;28;20025;-50
2022/12/30 03:35:39;;;;;;;16.00;3.65;;;;;;;3.91;100.00;100962.06;5051538;28;20372;-50
2022/12/30 03:38:09;;;;;;;17.33;3.75;;;;;;;3.89;100.00;100961.28;5052551;28;20047;-50
2022/12/30 03:40:36;;;;;;;;;;;;;;;3.94;100.00;100968.97;5041877;28;20492;-51
2022/12/30 03:43:03;;;;;;;17.73;3.33;;;;;;;3.86;100.00;100956.19;5050056;28;19934;-49
2022/12/30 03:45:29;;;;;;;16.23;3.63;;;;;;;3.83;100.00;100957.19;5051687;28;20495;-50
2022/12/30 03:47:54;;;;;;;19.13;3.90;;;;;;;3.83;100.00;100956.31;5050300;28;20055;-50
2022/12/30 03:50:20;;;;;;;14.95;3.90;;;;;;;3.80;100.00;100956.47;5051309;28;20040;-49
2022/12/30 03:52:45;;;;;;;16.00;3.70;;;;;;;3.80;100.00;100964.38;5052010;28;20036;-50
2022/12/30 03:55:10;;;;;;;18.92;4.07;;;;;;;3.77;100.00;100967.13;5052000;28;20108;-50
2022/12/30 03:57:36;;;;;;;11.38;3.63;;;;;;;3.76;100.00;100968.03;5047104;28;20029;-49
2022/12/30 04:00:03;;;;;;;17.88;3.92;;;;;;;3.72;100.00;100972.59;5051954;28;20422;-50
2022/12/30 04:02:28;;;;;;;15.50;3.97;;;;;;;3.71;100.00;100970.88;5051602;28;20031;-49
2022/12/30 04:04:53;;;;;;;11.25;3.60;;;;;;;3.67;100.00;100970.16;5051033;28;20394;-50
2022/12/30 04:07:19;;;;;;;16.60;3.80;;;;;;;3.64;100.00;100978.19;5052009;28;20020;-51
2022/12/30 04:09:44;;;;;;;21.73;4.35;;;;;;;3.63;100.00;100986.13;5050527;28;20017;-49
2022/12/30 04:12:09;;;;;;;16.95;3.70;;;;;;;3.58;100.00;100982.88;5049776;28;20490;-49
2022/12/30 04:14:35;;;;;;;19.80;3.47;;;;;;;3.55;100.00;100975.13;5051189;28;20028;-49
2022/12/30 04:17:00;;;;;;;18.27;4.53;;;;;;;3.52;100.00;100984.84;5038944;28;20046;-51
2022/12/30 04:19:25;;;;;;;18.92;3.78;;;;;;;3.51;100.00;100993.66;5049520;28;20033;-49
2022/12/30 04:21:50;;;;;;;17.42;4.20;;;;;;;3.49;100.00;101002.53;5051681;28;20021;-49
2022/12/30 04:24:16;;;;;;;24.63;4.20;;;;;;;3.47;100.00;100994.69;5051524;28;20035;-49
2022/12/30 04:26:41;;;;;;;13.48;3.90;;;;;;;3.47;100.00;100993.88;5051866;28;20036;-49
2022/12/30 04:29:07;;;;;;;18.17;4.07;;;;;;;3.45;100.00;100993.94;5050714;28;20029;-48
2022/12/30 04:31:32;;;;;;;16.63;3.90;;;;;;;3.43;100.00;100981.78;5051677;28;20021;-49
2022/12/30 04:33:57;;;;;;;19.70;3.97;;;;;;;3.42;100.00;100980.94;5051301;28;20106;-50
2022/12/30 04:36:23;;;;;;;21.17;3.85;;;;;;;3.39;100.00;100978.44;5051692;28;20494;-49
2022/12/30 04:38:48;;;;;;;18.30;4.05;;;;;;;3.38;100.00;100978.50;5049225;28;20060;-53
2022/12/30 04:41:14;;;;;;;19.02;4.93;;;;;;;3.37;100.00;100979.44;5051657;28;20028;-48
2022/12/30 04:43:40;;;;;;;13.57;3.67;;;;;;;3.35;100.00;100976.88;5051225;28;20025;-50
2022/12/30 04:46:06;;;;;;;14.50;3.90;;;;;;;3.34;100.00;100978.63;5051578;28;20051;-49
2022/12/30 04:48:31;;;;;;;16.35;3.65;;;;;;;3.33;100.00;100974.31;5050657;28;20021;-51
2022/12/30 04:50:57;;;;;;;12.68;3.95;;;;;;;3.33;100.00;100982.19;5051754;28;20033;-49
2022/12/30 04:53:22;;;;;;;15.27;4.10;;;;;;;3.32;100.00;100982.25;5050531;28;20054;-49
2022/12/30 04:55:52;;;;;;;17.50;4.03;;;;;;;3.31;100.00;100983.19;5051052;28;20028;-52
2022/12/30 04:58:17;;;;;;;12.63;3.60;;;;;;;3.31;100.00;100975.28;5050312;28;20127;-49
2022/12/30 05:00:43;;;;;;;17.70;3.92;;;;;;;3.30;100.00;100968.38;5052541;28;20115;-49
2022/12/30 05:03:08;;;;;;;20.20;4.40;;;;;;;3.29;100.00;100971.91;5053659;28;20028;-49
2022/12/30 05:05:33;;;;;;;16.58;3.78;;;;;;;3.27;100.00;100963.25;5055168;28;20479;-49
2022/12/30 05:07:59;;;;;;;17.92;3.85;;;;;;;3.28;100.00;100968.44;5054316;28;20025;-48
2022/12/30 05:10:24;;;;;;;21.88;4.00;;;;;;;3.28;100.00;100967.56;5055274;28;20368;-49
2022/12/30 05:12:49;;;;;;;17.92;3.60;;;;;;;3.25;100.00;100965.94;5051265;28;20108;-48
2022/12/30 05:15:15;;;;;;;18.80;4.07;;;;;;;3.23;100.00;100957.28;5047063;28;20483;-51
2022/12/30 05:17:40;;;;;;;23.85;4.18;;;;;;;3.23;100.00;100959.03;5048624;28;20076;-48
2022/12/30 05:20:06;;;;;;;20.70;3.97;;;;;;;3.24;100.00;100952.88;5055055;28;20028;-51
2022/12/30 05:22:31;;;;;;;22.48;3.85;;;;;;;3.24;100.00;100948.47;5054593;28;20100;-50
2022/12/30 05:27:40;;;;;;;16.50;3.67;;;;;;;3.27;100.00;100942.25;5054874;28;20028;-50
2022/12/30 05:30:06;;;;;;;17.52;4.05;;;;;;;3.25;100.00;100950.19;5053686;28;20025;-49
2022/12/30 05:32:31;;;;;;;18.60;4.40;;;;;;;3.26;100.00;100938.75;5053901;28;20052;-48
2022/12/30 05:34:56;;;;;;;19.60;4.22;;;;;;;3.29;100.00;100954.34;5054353;28;20021;-48
2022/12/30 05:37:22;;;;;;;14.60;4.20;;;;;;;3.30;100.00;100957.88;5048355;28;20061;-49
2022/12/30 05:39:47;;;;;;;16.38;4.05;;;;;;;3.32;100.00;100961.25;5050609;28;20033;-48
2022/12/30 05:42:12;;;;;;;15.13;4.22;;;;;;;3.35;100.00;100953.25;5053885;28;20025;-49
2022/12/30 05:44:37;;;;;;;22.50;4.28;;;;;;;3.34;100.00;100949.75;5054188;28;20036;-50
2022/12/30 05:47:03;;;;;;;19.38;4.10;;;;;;;3.36;100.00;100949.69;5054298;28;20509;-48
2022/12/30 05:49:28;;;;;;;20.35;4.07;;;;;;;3.37;100.00;100950.56;5053201;28;20043;-49
2022/12/30 05:51:53;;;;;;;17.10;3.60;;;;;;;3.38;100.00;100940.00;5054104;28;20055;-49
2022/12/30 05:54:19;;;;;;;20.33;3.92;;;;;;;3.40;100.00;100939.91;5053503;28;20127;-52
2022/12/30 05:56:44;;;;;;;14.00;3.60;;;;;;;3.42;100.00;100948.59;5052917;28;20355;-51
2022/12/30 05:59:09;;;;;;;23.90;4.90;;;;;;;3.42;100.00;100952.06;5054208;28;20087;-50
2022/12/30 06:01:36;;;;;;;20.88;4.32;;;;;;;3.43;100.00;100958.16;5053391;28;20128;-49
2022/12/30 06:04:01;;;;;;;14.13;4.13;;;;;;;3.44;100.00;100954.59;5054164;28;20029;-49
2022/12/30 06:06:26;;;;;;;19.10;3.78;;;;;;;3.45;100.00;100946.66;5053235;28;20487;-50
2022/12/30 06:08:52;;;;;;;14.45;3.53;;;;;;;3.46;100.00;100943.09;5045171;28;20052;-51
2022/12/30 06:11:18;;;;;;;21.92;4.30;;;;;;;3.50;100.00;100943.84;5051170;28;20029;-50
2022/12/30 06:13:43;;;;;;;14.75;3.72;;;;;;;3.52;100.00;100945.47;5053058;28;20067;-49
2022/12/30 06:16:08;;;;;;;20.95;4.47;;;;;;;3.57;100.00;100933.91;5048129;28;20487;-49
2022/12/30 06:18:33;;;;;;;21.15;4.10;;;;;;;3.59;100.00;100925.00;5046861;28;20408;-49
2022/12/30 06:20:59;;;;;;;19.15;4.18;;;;;;;3.60;100.00;100921.47;5053180;28;20025;-49
2022/12/30 06:23:24;;;;;;;19.55;4.20;;;;;;;3.61;100.00;100919.69;5053774;28;20041;-49
2022/12/30 06:25:54;;;;;;;20.38;4.38;;;;;;;3.64;100.00;100923.03;5048617;28;20082;-49
2022/12/30 06:28:21;;;;;;;23.45;4.20;;;;;;;3.64;100.00;100917.78;5047071;28;20379;-49
2022/12/30 06:30:47;;;;;;;16.33;3.63;;;;;;;3.64;100.00;100916.94;5054129;28;20052;-48
2022/12/30 06:33:13;;;;;;;18.27;3.92;;;;;;;3.67;100.00;100914.16;5047473;28;20446;-49
2022/12/30 06:35:38;;;;;;;16.10;3.78;;;;;;;3.66;100.00;100908.06;5052068;28;20049;-52
2022/12/30 06:38:03;;;;;;;16.77;3.90;;;;;;;3.68;100.00;100906.22;5053378;28;20024;-50
2022/12/30 06:40:29;;;;;;;17.20;3.70;;;;;;;3.70;100.00;100906.16;5052467;28;20059;-49
2022/12/30 06:42:54;;;;;;;15.60;4.20;;;;;;;3.75;100.00;100908.53;5053582;28;20113;-50
2022/12/30 06:45:19;;;;;;;16.25;4.00;;;;;;;3.75;100.00;100901.53;5052974;28;20032;-50
2022/12/30 06:47:44;;;;;;;15.90;4.20;;;;;;;3.74;100.00;100889.31;5047385;28;20029;-50
2022/12/30 06:50:10;;;;;;;17.67;3.90;;;;;;;3.74;100.00;100885.84;5052334;28;20035;-51
2022/12/30 06:52:35;;;;;;;13.85;3.88;;;;;;;3.76;100.00;100879.56;5052812;28;20021;-49
2022/12/30 06:55:00;;;;;;;18.30;3.85;;;;;;;3.76;100.00;100871.69;5050066;28;20032;-49
2022/12/30 06:57:26;;;;;;;17.70;3.83;;;;;;;3.76;100.00;100865.59;5051973;28;20025;-52
2022/12/30 06:59:51;;;;;;;13.60;3.72;;;;;;;3.74;100.00;100865.66;5050547;28;20029;-53
2022/12/30 07:02:16;;;;;;;16.50;3.47;;;;;;;3.77;100.00;100855.00;5052649;28;20048;-52
2022/12/30 07:04:41;;;;;;;15.88;3.92;;;;;;;3.75;100.00;100854.25;5051230;28;20037;-55
2022/12/30 07:07:07;;;;;;;13.30;3.75;;;;;;;3.76;100.00;100849.81;5050782;28;20032;-56
2022/12/30 07:09:32;;;;;;;14.90;4.20;;;;;;;3.75;100.00;100843.72;5052810;28;20024;-57
2022/12/30 07:11:57;;;;;;;17.23;3.85;;;;;;;3.74;100.00;100841.19;5047189;28;20025;-57
2022/12/30 07:14:23;;;;;;;14.48;3.80;;;;;;;3.75;100.00;100840.22;5033773;28;20026;-58
2022/12/30 07:16:48;;;;;;;18.27;4.28;;;;;;;3.74;100.00;100842.03;5028673;28;20069;-58
2022/12/30 07:19:14;;;;;;;18.38;4.78;;;;;;;3.75;100.00;100832.34;5037014;28;20372;-57
2022/12/30 07:21:39;;;;;;;12.48;3.40;;;;;;;3.76;100.00;100831.44;5042328;28;20021;-57
2022/12/30 07:24:05;;;;;;;13.25;3.67;;;;;;;3.81;100.00;100832.06;5045767;28;20083;-57
2022/12/30 07:26:30;;;;;;;13.80;3.63;;;;;;;3.84;100.00;100832.75;5046257;28;20024;-57
2022/12/30 07:28:55;;;;;;;14.30;3.75;;;;;;;3.87;100.00;100827.34;5046335;28;20041;-56
2022/12/30 07:31:21;;;;;;;13.20;3.60;;;;;;;3.91;100.00;100827.22;5048805;28;20024;-56
2022/12/30 07:33:47;;;;;;;16.23;3.60;;;;;;;3.94;100.00;100806.03;5048098;28;20042;-57
2022/12/30 07:36:13;;;;;;;18.88;3.72;;;;;;;3.94;100.00;100812.13;5049536;28;20463;-57
2022/12/30 07:38:38;;;;;;;17.75;3.67;;;;;;;3.99;100.00;100811.91;5045497;28;20049;-56
2022/12/30 07:41:03;;;;;;;12.32;3.17;;;;;;;4.02;100.00;100804.72;5044470;28;20025;-57
2022/12/30 07:43:29;;;;;;;15.35;3.70;;;;;;;4.05;100.00;100795.84;5044876;28;20487;-56
2022/12/30 07:45:54;;;;;;;12.32;4.07;;;;;;;4.09;100.00;100794.75;5048223;28;20025;-57
2022/12/30 07:48:20;;;;;;;10.15;2.47;;;;;;;4.11;100.00;100785.00;5046380;28;20125;-57
2022/12/30 07:50:45;;;;;;;11.23;3.38;;;;;;;4.13;100.00;100785.81;5045792;28;20150;-57
2022/12/30 07:53:11;;;;;;;7.57;3.22;;;;;;;4.15;100.00;100778.69;5044056;28;20457;-58
2022/12/30 07:55:40;;;;;;;9.95;3.03;;;;;;;4.20;100.00;100773.19;5042746;28;20025;-58
2022/12/30 07:58:06;;;;;;;11.35;3.10;;;;;;;4.27;100.00;100766.69;5047334;28;20044;-56
2022/12/30 08:00:31;;;;;;;9.75;2.85;;;;;;;4.32;100.00;100754.16;5044623;28;20044;-58
2022/12/30 08:02:56;;;;;;;11.25;2.90;;;;;;;4.35;100.00;100759.25;5046070;28;20033;-56
2022/12/30 08:05:22;;;;;;;9.13;2.97;;;;;;;4.41;100.00;100748.44;5042210;28;20033;-57
2022/12/30 08:07:47;;;;;;;11.55;3.03;;;;;;;4.44;100.00;100740.34;5044159;28;20060;-57
2022/12/30 08:10:12;;;;;;;12.55;2.95;;;;;;;4.48;100.00;100737.56;5046235;28;20024;-56
2022/12/30 08:12:38;;;;;;;7.72;2.90;;;;;;;4.52;100.00;100742.59;5046952;28;20041;-58
2022/12/30 08:15:04;;;;;;;8.60;2.47;;;;;;;4.55;100.00;100742.44;5046888;28;20029;-56
2022/12/30 08:17:29;;;;;;;9.00;2.90;;;;;;;4.59;100.00;100743.13;5039900;28;20057;-56
2022/12/30 08:19:54;;;;;;;8.75;2.80;;;;;;;4.63;100.00;100729.72;5048607;28;20434;-57
2022/12/30 08:22:20;;;;;;;11.07;2.80;;;;;;;4.66;100.00;100728.69;5043763;28;20040;-55
2022/12/30 08:24:45;;;;;;;8.27;3.20;;;;;;;4.68;100.00;100723.34;5040239;28;20124;-57
2022/12/30 08:27:10;;;;;;;12.63;3.20;;;;;;;4.72;100.00;100731.00;5045120;28;20025;-57
2022/12/30 08:29:36;;;;;;;9.10;3.22;;;;;;;4.73;100.00;100727.44;5048289;28;20036;-58
2022/12/30 08:32:01;;;;;;;12.25;2.88;;;;;;;4.78;100.00;100729.81;5042035;28;20060;-57
2022/12/30 08:34:27;;;;;;;8.85;3.28;;;;;;;4.79;100.00;100718.38;5046617;28;20033;-56
2022/12/30 08:36:52;;;;;;;10.23;2.90;;;;;;;4.80;100.00;100706.91;5049872;28;20033;-57
2022/12/30 08:39:18;;;;;;;12.55;3.20;;;;;;;4.84;100.00;100712.84;5049513;28;20037;-57
2022/12/30 08:41:46;;;;;;;14.63;3.00;;;;;;;4.89;100.00;100716.09;5045541;28;20475;-57
2022/12/30 08:44:12;;;;;;;8.50;2.90;;;;;;;4.95;100.00;100702.59;5037060;28;20495;-56
2022/12/30 08:46:39;;;;;;;9.50;2.97;;;;;;;4.97;100.00;100698.09;5046933;28;20040;-58
2022/12/30 08:49:05;;;;;;;8.18;2.72;;;;;;;4.99;100.00;100689.16;5053149;28;20037;-56
2022/12/30 08:51:31;;;;;;;9.70;3.58;;;;;;;5.08;100.00;100695.72;5050721;28;20112;-57
2022/12/30 08:53:57;;;;;;;13.45;3.50;;;;;;;5.14;100.00;100681.34;5053634;28;20128;-57
2022/12/30 08:56:27;;;;;;;6.63;2.55;;;;;;;5.19;100.00;100676.66;5048210;28;20029;-56
2022/12/30 08:58:52;;;;;;;8.40;2.80;;;;;;;5.19;100.00;100676.66;5037591;28;20048;-57
2022/12/30 09:01:21;;;;;;;10.02;2.80;;;;;;;5.28;100.00;100675.28;5040144;28;20021;-57
2022/12/30 09:03:48;;;;;;;7.85;2.63;;;;;;;5.32;100.00;100669.75;5041288;28;20053;-57
2022/12/30 09:06:15;;;;;;;7.20;2.72;;;;;;;5.33;100.00;100671.47;5036669;28;20030;-57
2022/12/30 09:08:41;;;;;;;11.43;2.47;;;;;;;5.35;100.00;100658.22;5047115;28;20025;-56
2022/12/30 09:11:15;;;;;;;11.05;3.20;;;;;;;5.37;100.00;100654.53;5052076;28;20028;-57
2022/12/30 09:13:41;;;;;;;10.98;2.63;;;;;;;5.40;100.00;100650.06;5054107;28;20037;-56
2022/12/30 09:16:09;;;;;;;7.10;2.30;;;;;;;5.40;100.00;100643.00;5049121;28;20057;-58
2022/12/30 09:18:35;;;;;;;7.68;3.00;;;;;;;5.45;100.00;100640.09;5046705;28;20453;-62
2022/12/30 09:21:02;;;;;;;11.77;2.90;;;;;;;5.48;100.00;100653.06;5049374;28;20053;-57
2022/12/30 09:23:27;;;;;;;10.25;2.58;;;;;;;5.52;100.00;100651.97;5041955;28;20037;-57
2022/12/30 09:25:52;;;;;;;9.40;2.65;;;;;;;5.55;100.00;100643.88;5046532;28;20497;-56
2022/12/30 09:28:18;;;;;;;8.57;2.60;;;;;;;5.59;100.00;100641.91;5048330;28;20033;-58
2022/12/30 09:30:43;;;;;;;26.33;3.40;;;;;;;5.60;100.00;100631.28;5038296;28;20060;-58
2022/12/30 09:33:08;;;;;;;7.93;2.58;;;;;;;5.64;100.00;100634.56;5039913;28;20391;-58
2022/12/30 09:35:34;;;;;;;7.85;2.20;;;;;;;5.70;100.00;100631.59;5062594;28;20029;-58
2022/12/30 09:37:59;;;;;;;7.55;2.00;;;;;;;5.77;100.00;100621.53;5025441;28;20036;-56
2022/12/30 09:40:43;;;;;;;7.97;2.40;;;;;;;5.85;100.00;100614.00;5052050;28;20025;-56
2022/12/30 09:43:22;;;;;;;5.40;2.25;;;;;;;5.87;100.00;100617.38;5052006;28;20079;-60
2022/12/30 09:46:06;;;;;;;6.65;1.98;;;;;;;5.92;100.00;100613.53;5056842;28;20029;-57
2022/12/30 09:49:04;;;;;;;7.18;2.08;;;;;;;5.96;100.00;100600.16;5067160;28;20075;-57
2022/12/30 09:51:36;;;;;;;7.40;2.15;;;;;;;6.01;100.00;100595.47;5041805;28;20174;-56
2022/12/30 09:54:16;;;;;;;9.27;2.05;;;;;;;6.03;100.00;100596.22;5052767;28;20091;-56
2022/12/30 09:56:48;;;;;;;17.58;2.90;;;;;;;6.05;100.00;100592.56;5055586;28;20029;-56
2022/12/30 09:59:24;;;;;;;7.30;1.92;;;;;;;6.10;100.00;100589.66;5050133;28;20025;-58
2022/12/30 10:01:57;;;;;;;35.47;4.00;;;;;;;6.13;100.00;100576.28;5051520;28;20063;-57
2022/12/30 10:04:35;;;;;;;6.47;2.00;;;;;;;6.20;100.00;100571.47;5041798;28;20029;-58
2022/12/30 10:07:31;;;;;;;8.55;2.35;;;;;;;6.25;100.00;100562.31;5052196;28;20068;-58
2022/12/30 10:10:19;;;;;;;10.13;1.80;;;;;;;6.31;100.00;100561.06;5050978;28;20065;-56
2022/12/30 10:12:47;;;;;;;4.18;1.67;;;;;;;6.35;100.00;100554.66;5049774;28;20032;-56
2022/12/30 10:15:13;;;;;;;7.53;2.22;;;;;;;6.39;100.00;100552.69;5052800;28;20394;-57
2022/12/30 10:18:10;;;;;;;5.70;1.73;;;;;;;6.42;100.00;100526.94;5036536;28;20045;-56
2022/12/30 10:21:14;;;;;;;8.70;2.20;;;;;;;6.45;100.00;100523.28;5040616;28;20021;-57
2022/12/30 10:23:58;;;;;;;7.43;2.20;;;;;;;6.50;100.00;100508.00;5044586;28;20048;-55
2022/12/30 10:26:29;;;;;;;6.78;1.65;;;;;;;6.53;100.00;100499.00;5047252;28;20068;-58
2022/12/30 10:28:58;;;;;;;7.95;2.08;;;;;;;6.53;100.00;100497.25;5044968;28;20037;-57
2022/12/30 10:31:28;;;;;;;10.15;2.22;;;;;;;6.55;100.00;100492.72;5043948;28;20083;-57
2022/12/30 10:33:59;;;;;;;7.85;2.05;;;;;;;6.58;100.00;100491.69;5039519;28;20025;-57
2022/12/30 10:36:33;;;;;;;10.18;2.00;;;;;;;6.64;100.00;100483.34;5041270;28;20030;-57
2022/12/30 10:39:11;;;;;;;3.70;1.65;;;;;;;6.67;100.00;100473.41;5031631;28;20021;-56
2022/12/30 10:42:11;;;;;;;8.32;2.08;;;;;;;6.73;100.00;100463.41;5038202;28;20029;-58
2022/12/30 10:45:16;;;;;;;6.80;1.95;;;;;;;6.78;100.00;100459.53;5040175;28;20104;-58
2022/12/30 10:47:53;;;;;;;11.52;2.42;;;;;;;6.81;100.00;100438.19;5051340;28;20067;-56
2022/12/30 10:50:34;;;;;;;6.30;2.35;;;;;;;6.87;99.88;100436.94;5040937;28;20044;-56
2022/12/30 10:53:01;;;;;;;7.93;2.45;;;;;;;6.88;99.82;100422.78;5049002;28;20450;-57
2022/12/30 10:55:29;;;;;;;7.38;2.00;;;;;;;6.94;99.30;100416.25;5052932;28;20031;-57
2022/12/30 10:58:01;;;;;;;6.28;2.20;;;;;;;6.96;99.41;100411.69;5051936;28;20502;-57
2022/12/30 11:00:29;;;;;;;7.75;2.05;;;;;;;7.00;98.76;100392.91;5052158;28;20029;-58
2022/12/30 11:03:01;;;;;;;6.63;2.47;;;;;;;7.02;98.64;100396.28;5049113;28;20044;-57
2022/12/30 11:05:35;;;;;;;12.20;2.58;;;;;;;7.07;98.50;100384.56;5043836;28;20114;-57
2022/12/30 11:08:17;;;;;;;9.63;2.13;;;;;;;7.11;98.23;100376.31;5050733;28;20108;-56
2022/12/30 11:10:42;;;;;;;7.78;2.03;;;;;;;7.12;98.47;100372.72;5050449;28;20051;-58
2022/12/30 11:16:01;;;;;;;11.52;2.50;;;;;;;7.20;97.36;100359.81;5051016;28;20055;-58
2022/12/30 11:18:29;;;;;;;8.52;1.95;;;;;;;7.23;97.20;100345.56;5036329;28;20033;-57
2022/12/30 11:20:59;;;;;;;10.02;2.08;;;;;;;7.22;97.45;100342.06;5040480;28;20114;-58
2022/12/30 11:23:29;;;;;;;10.13;2.28;;;;;;;7.26;97.05;100336.56;5045445;28;20024;-58
2022/12/30 11:25:56;;;;;;;9.88;2.58;;;;;;;7.26;97.35;100328.63;5050353;28;20056;-57
2022/12/30 11:28:33;;;;;;;7.72;2.35;;;;;;;7.26;97.47;100303.09;5046765;28;20384;-57
2022/12/30 11:31:03;;;;;;;7.72;2.15;;;;;;;7.25;97.29;100303.19;5047130;28;20098;-58
2022/12/30 11:33:38;;;;;;;8.30;2.20;;;;;;;7.34;96.46;100284.03;5045224;28;20025;-53
2022/12/30 11:36:28;;;;;;;6.28;1.77;;;;;;;7.34;96.76;100281.38;5041639;28;20052;-53
2022/12/30 11:39:18;;;;;;;9.85;2.00;;;;;;;7.34;96.69;100260.25;5042743;28;20398;-53
2022/12/30 11:41:57;;;;;;;8.88;2.20;;;;;;;7.36;96.14;100250.41;5040329;28;20124;-57
2022/12/30 11:44:23;;;;;;;;;;;;;;;7.40;98.24;100250.09;5043341;28;20495;-56
2022/12/30 11:46:54;;;;;;;7.60;1.95;;;;;;;7.44;95.98;100244.59;5044892;28;19970;-55
2022/12/30 11:49:33;;;;;;;7.35;2.65;;;;;;;7.46;96.18;100230.31;5032418;28;20060;-58
2022/12/30 11:52:31;;;;;;;16.00;3.03;;;;;;;7.49;96.78;100223.94;5050231;28;20025;-58
2022/12/30 11:54:59;;;;;;;8.65;2.53;;;;;;;7.51;95.70;100204.41;5056720;28;20414;-57
2022/12/30 11:57:33;;;;;;;7.65;2.15;;;;;;;7.55;95.72;100183.88;5047344;28;20017;-58
2022/12/30 12:00:25;;;;;;;11.48;2.65;;;;;;;7.55;95.44;100183.88;5048817;28;20505;-57
2022/12/30 12:02:59;;;;;;;8.07;2.20;;;;;;;7.62;94.94;100184.25;5047509;28;20052;-57
2022/12/30 12:05:27;;;;;;;10.63;2.03;;;;;;;7.63;95.17;100181.50;5044757;28;20041;-57
2022/12/30 12:08:14;;;;;;;8.15;2.70;;;;;;;7.69;94.99;100177.53;5042543;28;20135;-56
2022/12/30 12:10:42;;;;;;;7.68;2.05;;;;;;;7.74;94.17;100168.31;5041383;28;20033;-58
2022/12/30 12:13:14;;;;;;;8.43;2.30;;;;;;;7.76;94.46;100166.41;5045346;28;20029;-57
2022/12/30 12:15:45;;;;;;;7.32;2.30;;;;;;;7.77;94.35;100160.13;5040805;28;20072;-57
2022/12/30 12:18:18;;;;;;;11.57;2.50;;;;;;;7.81;94.30;100151.97;5051334;28;20380;-57
2022/12/30 12:20:46;;;;;;;7.63;1.98;;;;;;;7.84;94.78;100138.53;5050600;28;20124;-55
2022/12/30 12:23:34;;;;;;;10.50;2.78;;;;;;;7.83;96.19;100118.31;5044106;28;20086;-58
2022/12/30 12:26:21;;;;;;;10.05;2.22;;;;;;;7.82;96.19;100128.06;5028103;28;20045;-58
2022/12/30 12:28:48;;;;;;;5.38;1.90;;;;;;;7.78;97.23;100116.06;5035042;28;20029;-58